Airfield :
LOGIN :

Register | Disclaimer

   EN    FR    IT 

 










Legend :    VFR   Marginal VFR   IFR   Intensive IFR   Very Intensive IFR
Visi :
Ceiling :
>= 8 km
>= 3000ft
5 to 8 km
1000 to 3000 ft
1500m to 5 km
500 to 1000 ft
800 to 1500m
200 to 500 ft
< 800m
< 200 ft
Symbols :   Thunderstorms  Fog  Heavy snow  Heavy precipitations  Wind > 20 kt
SIGMETs :     Misc.  Thunderstorms  Icing  Turbulence  Mountain Waves  Volcanic Ashes






- Airport Elevation : 30 ft
- IATA code : CFN


EIDL - Donegal

CURRENT METAR :
  • 301930Z 27009KT 9999 BKN031 14/09 Q1011

EXPIRED METARs :
  • 301900Z 28009KT 9999 FEW015 BKN025 14/10 Q1011
  • 301830Z 27010KT 9999 SCT012 BKN016 13/11 Q1011
  • 301800Z 27011KT 9999 FEW012 BKN031 14/11 Q1011
  • 301730Z 28010KT 9999 FEW010 BKN019 14/12 Q1011
  • 301700Z 27010KT 9999 FEW005 SCT008 OVC015 13/12 Q1010

TAF TAF EIDL
Valid from the 30 at 18:00 until the 01 at 03:00 UTC


301700Z 3018/0103 26010KT 9999 FEW012 BKN020
PROB40
TEMPO 3018/3024 4000 -SHRA SCT007 BKN012
BECMG 3020/3022 VRB03KT



MET'MAP, your aeronautical weather chart ! - Copyright ORBIFLY December 2007 - Disclaimer

ORBIFLY MET'MAP TEAM :

Programming & Development : Alexandra Zaïnal
Original concept : Baudouin d'Aumeries
Technical & hardware support : Manuel Goepfert
Assistance : Marc-Olivier Méhu




SOURCES & CREDITS :

   NOAA